sensor_id;sensor_type;location;lat;lon;timestamp;P1;durP1;ratioP1;P2;durP2;ratioP2
21761;SDS011;11203;50.870;20.682;2022-08-01T00:01:50;16.42;;;12.68;;
21761;SDS011;11203;50.870;20.682;2022-08-01T00:04:16;15.55;;;11.23;;
21761;SDS011;11203;50.870;20.682;2022-08-01T00:06:42;16.15;;;12.00;;
21761;SDS011;11203;50.870;20.682;2022-08-01T00:09:08;15.48;;;11.98;;
21761;SDS011;11203;50.870;20.682;2022-08-01T00:11:34;16.15;;;12.20;;
21761;SDS011;11203;50.870;20.682;2022-08-01T00:14:00;16.50;;;12.10;;
21761;SDS011;11203;50.870;20.682;2022-08-01T00:16:26;16.92;;;11.88;;
21761;SDS011;11203;50.870;20.682;2022-08-01T00:18:52;19.13;;;12.07;;
21761;SDS011;11203;50.870;20.682;2022-08-01T00:21:19;17.02;;;12.05;;
21761;SDS011;11203;50.870;20.682;2022-08-01T00:23:45;16.08;;;11.23;;
21761;SDS011;11203;50.870;20.682;2022-08-01T00:26:14;19.70;;;13.90;;
21761;SDS011;11203;50.870;20.682;2022-08-01T00:28:41;22.67;;;15.30;;
21761;SDS011;11203;50.870;20.682;2022-08-01T00:31:07;23.77;;;17.10;;
21761;SDS011;11203;50.870;20.682;2022-08-01T00:33:33;27.52;;;16.00;;
21761;SDS011;11203;50.870;20.682;2022-08-01T00:35:59;27.40;;;17.10;;
21761;SDS011;11203;50.870;20.682;2022-08-01T00:38:25;37.78;;;21.77;;
21761;SDS011;11203;50.870;20.682;2022-08-01T00:40:51;42.90;;;21.98;;
21761;SDS011;11203;50.870;20.682;2022-08-01T00:43:17;36.40;;;23.40;;
21761;SDS011;11203;50.870;20.682;2022-08-01T00:45:43;34.28;;;21.42;;
21761;SDS011;11203;50.870;20.682;2022-08-01T00:48:09;32.88;;;21.23;;
21761;SDS011;11203;50.870;20.682;2022-08-01T00:50:35;34.53;;;21.80;;
21761;SDS011;11203;50.870;20.682;2022-08-01T00:53:01;30.48;;;22.10;;
21761;SDS011;11203;50.870;20.682;2022-08-01T00:55:28;28.48;;;19.90;;
21761;SDS011;11203;50.870;20.682;2022-08-01T00:57:56;25.55;;;18.48;;
21761;SDS011;11203;50.870;20.682;2022-08-01T01:00:23;21.25;;;16.77;;
21761;SDS011;11203;50.870;20.682;2022-08-01T01:02:51;22.80;;;17.08;;
21761;SDS011;11203;50.870;20.682;2022-08-01T01:05:17;21.38;;;17.98;;
21761;SDS011;11203;50.870;20.682;2022-08-01T01:07:48;20.45;;;16.55;;
21761;SDS011;11203;50.870;20.682;2022-08-01T01:11:02;22.77;;;17.42;;
21761;SDS011;11203;50.870;20.682;2022-08-01T01:14:00;18.40;;;15.15;;
21761;SDS011;11203;50.870;20.682;2022-08-01T01:16:30;16.35;;;11.13;;
21761;SDS011;11203;50.870;20.682;2022-08-01T01:19:00;16.40;;;13.52;;
21761;SDS011;11203;50.870;20.682;2022-08-01T01:21:32;15.60;;;12.77;;
21761;SDS011;11203;50.870;20.682;2022-08-01T01:27:39;13.35;;;11.95;;
21761;SDS011;11203;50.870;20.682;2022-08-01T01:30:25;16.10;;;12.75;;
21761;SDS011;11203;50.870;20.682;2022-08-01T01:32:55;16.10;;;12.90;;
21761;SDS011;11203;50.870;20.682;2022-08-01T01:35:29;16.60;;;14.07;;
21761;SDS011;11203;50.870;20.682;2022-08-01T01:38:04;16.40;;;14.13;;
21761;SDS011;11203;50.870;20.682;2022-08-01T01:40:41;18.58;;;14.77;;
21761;SDS011;11203;50.870;20.682;2022-08-01T01:43:09;20.75;;;15.45;;
21761;SDS011;11203;50.870;20.682;2022-08-01T01:45:36;29.27;;;17.33;;
21761;SDS011;11203;50.870;20.682;2022-08-01T01:48:04;22.33;;;17.95;;
21761;SDS011;11203;50.870;20.682;2022-08-01T01:50:32;25.70;;;18.25;;
21761;SDS011;11203;50.870;20.682;2022-08-01T01:53:01;34.67;;;23.10;;
21761;SDS011;11203;50.870;20.682;2022-08-01T01:55:29;27.77;;;18.67;;
21761;SDS011;11203;50.870;20.682;2022-08-01T01:57:56;32.75;;;23.15;;
21761;SDS011;11203;50.870;20.682;2022-08-01T02:00:23;36.72;;;24.83;;
21761;SDS011;11203;50.870;20.682;2022-08-01T02:02:50;46.17;;;25.40;;
21761;SDS011;11203;50.870;20.682;2022-08-01T02:05:19;41.08;;;25.42;;
21761;SDS011;11203;50.870;20.682;2022-08-01T02:07:46;33.03;;;22.65;;
21761;SDS011;11203;50.870;20.682;2022-08-01T02:10:14;32.50;;;21.92;;
21761;SDS011;11203;50.870;20.682;2022-08-01T02:12:43;38.78;;;24.55;;
21761;SDS011;11203;50.870;20.682;2022-08-01T02:15:11;39.30;;;24.25;;
21761;SDS011;11203;50.870;20.682;2022-08-01T02:17:42;47.17;;;28.05;;
21761;SDS011;11203;50.870;20.682;2022-08-01T02:20:12;42.45;;;26.38;;
21761;SDS011;11203;50.870;20.682;2022-08-01T02:22:44;44.90;;;25.90;;
21761;SDS011;11203;50.870;20.682;2022-08-01T02:25:22;45.13;;;26.80;;
21761;SDS011;11203;50.870;20.682;2022-08-01T02:30:23;53.42;;;29.77;;
21761;SDS011;11203;50.870;20.682;2022-08-01T02:32:51;46.47;;;25.92;;
21761;SDS011;11203;50.870;20.682;2022-08-01T02:35:28;36.92;;;22.90;;
21761;SDS011;11203;50.870;20.682;2022-08-01T02:37:57;33.95;;;20.58;;
21761;SDS011;11203;50.870;20.682;2022-08-01T02:40:26;34.63;;;21.40;;
21761;SDS011;11203;50.870;20.682;2022-08-01T02:42:56;31.38;;;20.58;;
21761;SDS011;11203;50.870;20.682;2022-08-01T02:45:25;30.00;;;19.75;;
21761;SDS011;11203;50.870;20.682;2022-08-01T02:47:56;32.10;;;21.45;;
21761;SDS011;11203;50.870;20.682;2022-08-01T02:50:29;31.23;;;20.83;;
21761;SDS011;11203;50.870;20.682;2022-08-01T02:52:57;27.23;;;18.88;;
21761;SDS011;11203;50.870;20.682;2022-08-01T02:55:25;29.55;;;20.27;;
21761;SDS011;11203;50.870;20.682;2022-08-01T02:57:52;27.20;;;19.83;;
21761;SDS011;11203;50.870;20.682;2022-08-01T03:00:20;27.48;;;19.70;;
21761;SDS011;11203;50.870;20.682;2022-08-01T03:02:48;26.38;;;18.65;;
21761;SDS011;11203;50.870;20.682;2022-08-01T03:05:17;29.98;;;19.15;;
21761;SDS011;11203;50.870;20.682;2022-08-01T03:07:43;27.75;;;17.63;;
21761;SDS011;11203;50.870;20.682;2022-08-01T03:10:10;25.52;;;19.23;;
21761;SDS011;11203;50.870;20.682;2022-08-01T03:12:38;26.50;;;18.00;;
21761;SDS011;11203;50.870;20.682;2022-08-01T03:15:05;22.02;;;16.08;;
21761;SDS011;11203;50.870;20.682;2022-08-01T03:17:35;25.88;;;17.38;;
21761;SDS011;11203;50.870;20.682;2022-08-01T03:20:04;23.20;;;17.38;;
21761;SDS011;11203;50.870;20.682;2022-08-01T03:22:34;27.00;;;18.15;;
21761;SDS011;11203;50.870;20.682;2022-08-01T03:25:02;20.90;;;16.15;;
21761;SDS011;11203;50.870;20.682;2022-08-01T03:27:29;19.08;;;15.80;;
21761;SDS011;11203;50.870;20.682;2022-08-01T03:29:56;20.15;;;15.45;;
21761;SDS011;11203;50.870;20.682;2022-08-01T03:32:25;18.73;;;15.32;;
21761;SDS011;11203;50.870;20.682;2022-08-01T03:34:53;20.65;;;15.50;;
21761;SDS011;11203;50.870;20.682;2022-08-01T03:37:23;18.30;;;15.30;;
21761;SDS011;11203;50.870;20.682;2022-08-01T03:39:57;18.88;;;15.20;;
21761;SDS011;11203;50.870;20.682;2022-08-01T03:42:52;17.13;;;11.18;;
21761;SDS011;11203;50.870;20.682;2022-08-01T03:45:25;16.70;;;13.45;;
21761;SDS011;11203;50.870;20.682;2022-08-01T03:47:59;17.60;;;14.75;;
21761;SDS011;11203;50.870;20.682;2022-08-01T03:50:28;22.00;;;14.07;;
21761;SDS011;11203;50.870;20.682;2022-08-01T03:53:00;19.50;;;15.68;;
21761;SDS011;11203;50.870;20.682;2022-08-01T03:55:29;20.45;;;16.05;;
21761;SDS011;11203;50.870;20.682;2022-08-01T03:57:57;18.42;;;15.02;;
21761;SDS011;11203;50.870;20.682;2022-08-01T04:00:25;19.73;;;15.90;;
21761;SDS011;11203;50.870;20.682;2022-08-01T04:02:52;18.48;;;14.98;;
21761;SDS011;11203;50.870;20.682;2022-08-01T04:05:19;20.90;;;15.52;;
21761;SDS011;11203;50.870;20.682;2022-08-01T04:07:46;21.85;;;16.20;;
21761;SDS011;11203;50.870;20.682;2022-08-01T04:10:21;20.58;;;16.30;;
21761;SDS011;11203;50.870;20.682;2022-08-01T04:12:51;19.30;;;16.55;;
21761;SDS011;11203;50.870;20.682;2022-08-01T04:15:17;20.05;;;16.55;;
21761;SDS011;11203;50.870;20.682;2022-08-01T04:17:45;18.75;;;16.75;;
21761;SDS011;11203;50.870;20.682;2022-08-01T04:20:12;20.02;;;17.15;;
21761;SDS011;11203;50.870;20.682;2022-08-01T04:22:38;21.08;;;17.10;;
21761;SDS011;11203;50.870;20.682;2022-08-01T04:25:07;23.17;;;16.40;;
21761;SDS011;11203;50.870;20.682;2022-08-01T04:27:39;19.58;;;17.40;;
21761;SDS011;11203;50.870;20.682;2022-08-01T04:30:09;20.42;;;14.95;;
21761;SDS011;11203;50.870;20.682;2022-08-01T04:32:37;19.60;;;17.40;;
21761;SDS011;11203;50.870;20.682;2022-08-01T04:35:06;21.92;;;16.95;;
21761;SDS011;11203;50.870;20.682;2022-08-01T04:37:36;20.35;;;18.15;;
21761;SDS011;11203;50.870;20.682;2022-08-01T04:40:06;23.30;;;17.88;;
21761;SDS011;11203;50.870;20.682;2022-08-01T04:42:34;21.05;;;18.25;;
21761;SDS011;11203;50.870;20.682;2022-08-01T04:45:00;21.42;;;17.75;;
21761;SDS011;11203;50.870;20.682;2022-08-01T04:47:26;24.00;;;17.50;;
21761;SDS011;11203;50.870;20.682;2022-08-01T04:49:54;20.35;;;17.55;;
21761;SDS011;11203;50.870;20.682;2022-08-01T04:52:21;18.60;;;16.30;;
21761;SDS011;11203;50.870;20.682;2022-08-01T04:54:48;19.48;;;16.65;;
21761;SDS011;11203;50.870;20.682;2022-08-01T04:57:14;19.80;;;17.02;;
21761;SDS011;11203;50.870;20.682;2022-08-01T04:59:42;22.73;;;18.13;;
21761;SDS011;11203;50.870;20.682;2022-08-01T05:02:18;18.25;;;14.70;;
21761;SDS011;11203;50.870;20.682;2022-08-01T05:04:45;15.85;;;14.13;;
21761;SDS011;11203;50.870;20.682;2022-08-01T05:07:12;18.10;;;14.35;;
21761;SDS011;11203;50.870;20.682;2022-08-01T05:09:39;17.55;;;15.68;;
21761;SDS011;11203;50.870;20.682;2022-08-01T05:12:11;19.70;;;16.55;;
21761;SDS011;11203;50.870;20.682;2022-08-01T05:14:41;22.30;;;16.85;;
21761;SDS011;11203;50.870;20.682;2022-08-01T05:17:08;18.20;;;16.27;;
21761;SDS011;11203;50.870;20.682;2022-08-01T05:19:35;18.40;;;15.40;;
21761;SDS011;11203;50.870;20.682;2022-08-01T05:22:08;21.50;;;16.25;;
21761;SDS011;11203;50.870;20.682;2022-08-01T05:24:35;17.27;;;14.90;;
21761;SDS011;11203;50.870;20.682;2022-08-01T05:27:05;21.75;;;17.10;;
21761;SDS011;11203;50.870;20.682;2022-08-01T05:29:33;19.50;;;16.63;;
21761;SDS011;11203;50.870;20.682;2022-08-01T05:32:00;21.55;;;17.38;;
21761;SDS011;11203;50.870;20.682;2022-08-01T05:34:26;15.73;;;13.88;;
21761;SDS011;11203;50.870;20.682;2022-08-01T05:36:52;14.93;;;13.43;;
21761;SDS011;11203;50.870;20.682;2022-08-01T05:39:18;16.20;;;14.48;;
21761;SDS011;11203;50.870;20.682;2022-08-01T05:41:45;15.57;;;14.07;;
21761;SDS011;11203;50.870;20.682;2022-08-01T05:44:11;15.93;;;14.00;;
21761;SDS011;11203;50.870;20.682;2022-08-01T05:46:37;18.05;;;16.15;;
21761;SDS011;11203;50.870;20.682;2022-08-01T05:49:04;16.05;;;14.35;;
21761;SDS011;11203;50.870;20.682;2022-08-01T05:51:31;14.18;;;12.43;;
21761;SDS011;11203;50.870;20.682;2022-08-01T05:53:57;13.70;;;12.27;;
21761;SDS011;11203;50.870;20.682;2022-08-01T05:56:24;15.02;;;11.38;;
21761;SDS011;11203;50.870;20.682;2022-08-01T05:58:50;13.35;;;12.05;;
21761;SDS011;11203;50.870;20.682;2022-08-01T06:01:18;14.77;;;13.27;;
21761;SDS011;11203;50.870;20.682;2022-08-01T06:03:44;13.85;;;12.45;;
21761;SDS011;11203;50.870;20.682;2022-08-01T06:06:11;12.80;;;11.45;;
21761;SDS011;11203;50.870;20.682;2022-08-01T06:08:39;12.05;;;10.80;;
21761;SDS011;11203;50.870;20.682;2022-08-01T06:11:06;12.25;;;10.95;;
21761;SDS011;11203;50.870;20.682;2022-08-01T06:13:32;11.10;;;10.00;;
21761;SDS011;11203;50.870;20.682;2022-08-01T06:15:58;11.48;;;10.30;;
21761;SDS011;11203;50.870;20.682;2022-08-01T06:18:24;12.88;;;10.82;;
21761;SDS011;11203;50.870;20.682;2022-08-01T06:20:50;11.15;;;10.05;;
21761;SDS011;11203;50.870;20.682;2022-08-01T06:23:16;11.30;;;10.20;;
21761;SDS011;11203;50.870;20.682;2022-08-01T06:25:42;10.63;;;9.25;;
21761;SDS011;11203;50.870;20.682;2022-08-01T06:28:08;11.43;;;10.30;;
21761;SDS011;11203;50.870;20.682;2022-08-01T06:30:34;11.30;;;10.20;;
21761;SDS011;11203;50.870;20.682;2022-08-01T06:33:00;12.70;;;11.05;;
21761;SDS011;11203;50.870;20.682;2022-08-01T06:35:28;14.00;;;10.55;;
21761;SDS011;11203;50.870;20.682;2022-08-01T06:37:55;12.40;;;11.10;;
21761;SDS011;11203;50.870;20.682;2022-08-01T06:40:22;15.38;;;13.77;;
21761;SDS011;11203;50.870;20.682;2022-08-01T06:42:49;15.23;;;13.63;;
21761;SDS011;11203;50.870;20.682;2022-08-01T06:45:15;17.48;;;12.15;;
21761;SDS011;11203;50.870;20.682;2022-08-01T06:47:42;14.13;;;12.73;;
21761;SDS011;11203;50.870;20.682;2022-08-01T06:50:10;14.30;;;11.60;;
21761;SDS011;11203;50.870;20.682;2022-08-01T06:52:36;16.80;;;14.95;;
21761;SDS011;11203;50.870;20.682;2022-08-01T06:55:03;14.30;;;12.80;;
21761;SDS011;11203;50.870;20.682;2022-08-01T06:57:30;18.05;;;13.35;;
21761;SDS011;11203;50.870;20.682;2022-08-01T06:59:56;15.25;;;13.00;;
21761;SDS011;11203;50.870;20.682;2022-08-01T07:02:22;15.68;;;14.07;;
21761;SDS011;11203;50.870;20.682;2022-08-01T07:04:48;16.75;;;13.48;;
21761;SDS011;11203;50.870;20.682;2022-08-01T07:07:14;19.95;;;15.18;;
21761;SDS011;11203;50.870;20.682;2022-08-01T07:09:40;15.68;;;13.40;;
21761;SDS011;11203;50.870;20.682;2022-08-01T07:12:08;15.48;;;13.25;;
21761;SDS011;11203;50.870;20.682;2022-08-01T07:14:35;10.70;;;9.50;;
21761;SDS011;11203;50.870;20.682;2022-08-01T07:17:01;13.32;;;10.40;;
21761;SDS011;11203;50.870;20.682;2022-08-01T07:19:27;12.23;;;10.90;;
21761;SDS011;11203;50.870;20.682;2022-08-01T07:21:53;11.13;;;9.70;;
21761;SDS011;11203;50.870;20.682;2022-08-01T07:24:19;13.63;;;9.52;;
21761;SDS011;11203;50.870;20.682;2022-08-01T07:26:47;9.48;;;8.57;;
21761;SDS011;11203;50.870;20.682;2022-08-01T07:29:14;13.07;;;10.30;;
21761;SDS011;11203;50.870;20.682;2022-08-01T07:31:40;11.73;;;10.52;;
21761;SDS011;11203;50.870;20.682;2022-08-01T07:34:06;15.27;;;9.98;;
21761;SDS011;11203;50.870;20.682;2022-08-01T07:36:32;12.20;;;10.52;;
21761;SDS011;11203;50.870;20.682;2022-08-01T07:38:58;11.07;;;9.68;;
21761;SDS011;11203;50.870;20.682;2022-08-01T07:41:24;10.13;;;8.45;;
21761;SDS011;11203;50.870;20.682;2022-08-01T07:43:50;12.05;;;8.18;;
21761;SDS011;11203;50.870;20.682;2022-08-01T07:46:16;11.38;;;8.98;;
21761;SDS011;11203;50.870;20.682;2022-08-01T07:48:42;10.20;;;8.00;;
21761;SDS011;11203;50.870;20.682;2022-08-01T07:51:08;9.18;;;8.05;;
21761;SDS011;11203;50.870;20.682;2022-08-01T07:53:35;9.27;;;8.38;;
21761;SDS011;11203;50.870;20.682;2022-08-01T07:56:02;9.25;;;8.35;;
21761;SDS011;11203;50.870;20.682;2022-08-01T07:58:31;8.80;;;7.82;;
21761;SDS011;11203;50.870;20.682;2022-08-01T08:01:00;12.30;;;7.78;;
21761;SDS011;11203;50.870;20.682;2022-08-01T08:03:27;9.35;;;7.45;;
21761;SDS011;11203;50.870;20.682;2022-08-01T08:05:53;8.88;;;8.07;;
21761;SDS011;11203;50.870;20.682;2022-08-01T08:08:19;10.15;;;6.95;;
21761;SDS011;11203;50.870;20.682;2022-08-01T08:10:45;8.88;;;6.65;;
21761;SDS011;11203;50.870;20.682;2022-08-01T08:13:11;6.97;;;6.28;;
21761;SDS011;11203;50.870;20.682;2022-08-01T08:15:37;7.25;;;6.45;;
21761;SDS011;11203;50.870;20.682;2022-08-01T08:18:03;11.30;;;7.10;;
21761;SDS011;11203;50.870;20.682;2022-08-01T08:20:30;7.57;;;6.43;;
21761;SDS011;11203;50.870;20.682;2022-08-01T08:22:56;6.53;;;5.80;;
21761;SDS011;11203;50.870;20.682;2022-08-01T08:25:25;6.35;;;5.72;;
21761;SDS011;11203;50.870;20.682;2022-08-01T08:27:52;7.25;;;6.00;;
21761;SDS011;11203;50.870;20.682;2022-08-01T08:30:18;8.98;;;6.97;;
21761;SDS011;11203;50.870;20.682;2022-08-01T08:32:45;7.65;;;6.30;;
21761;SDS011;11203;50.870;20.682;2022-08-01T08:35:10;6.68;;;5.70;;
21761;SDS011;11203;50.870;20.682;2022-08-01T08:37:37;6.93;;;5.63;;
21761;SDS011;11203;50.870;20.682;2022-08-01T08:40:03;6.95;;;6.25;;
21761;SDS011;11203;50.870;20.682;2022-08-01T08:42:31;10.10;;;6.20;;
21761;SDS011;11203;50.870;20.682;2022-08-01T08:44:57;7.32;;;6.22;;
21761;SDS011;11203;50.870;20.682;2022-08-01T08:47:23;8.38;;;6.57;;
21761;SDS011;11203;50.870;20.682;2022-08-01T08:49:52;7.82;;;5.07;;
21761;SDS011;11203;50.870;20.682;2022-08-01T08:52:20;7.00;;;4.80;;
21761;SDS011;11203;50.870;20.682;2022-08-01T08:54:48;6.65;;;5.10;;
21761;SDS011;11203;50.870;20.682;2022-08-01T08:57:18;6.32;;;5.63;;
21761;SDS011;11203;50.870;20.682;2022-08-01T08:59:46;6.43;;;5.20;;
21761;SDS011;11203;50.870;20.682;2022-08-01T09:02:12;6.45;;;4.53;;
21761;SDS011;11203;50.870;20.682;2022-08-01T09:04:38;4.28;;;3.92;;
21761;SDS011;11203;50.870;20.682;2022-08-01T09:07:05;6.38;;;4.35;;
21761;SDS011;11203;50.870;20.682;2022-08-01T09:09:33;6.43;;;4.15;;
21761;SDS011;11203;50.870;20.682;2022-08-01T09:12:00;4.85;;;4.45;;
21761;SDS011;11203;50.870;20.682;2022-08-01T09:14:26;4.65;;;4.13;;
21761;SDS011;11203;50.870;20.682;2022-08-01T09:17:05;4.90;;;4.35;;
21761;SDS011;11203;50.870;20.682;2022-08-01T09:19:43;6.15;;;4.40;;
21761;SDS011;11203;50.870;20.682;2022-08-01T09:22:15;9.32;;;3.95;;
21761;SDS011;11203;50.870;20.682;2022-08-01T09:25:05;6.72;;;4.00;;
21761;SDS011;11203;50.870;20.682;2022-08-01T09:27:36;4.97;;;3.97;;
21761;SDS011;11203;50.870;20.682;2022-08-01T09:30:17;6.65;;;3.80;;
21761;SDS011;11203;50.870;20.682;2022-08-01T09:32:56;4.60;;;3.40;;
21761;SDS011;11203;50.870;20.682;2022-08-01T09:35:30;4.35;;;3.95;;
21761;SDS011;11203;50.870;20.682;2022-08-01T09:38:18;6.10;;;4.15;;
21761;SDS011;11203;50.870;20.682;2022-08-01T09:40:58;4.38;;;3.67;;
21761;SDS011;11203;50.870;20.682;2022-08-01T09:43:26;7.75;;;4.05;;
21761;SDS011;11203;50.870;20.682;2022-08-01T09:45:57;4.93;;;3.80;;
21761;SDS011;11203;50.870;20.682;2022-08-01T09:48:25;8.80;;;3.75;;
21761;SDS011;11203;50.870;20.682;2022-08-01T09:50:53;7.07;;;3.20;;
21761;SDS011;11203;50.870;20.682;2022-08-01T09:53:19;8.90;;;3.30;;
21761;SDS011;11203;50.870;20.682;2022-08-01T09:55:45;4.68;;;2.85;;
21761;SDS011;11203;50.870;20.682;2022-08-01T09:58:11;3.40;;;3.10;;
21761;SDS011;11203;50.870;20.682;2022-08-01T10:00:38;3.90;;;2.80;;
21761;SDS011;11203;50.870;20.682;2022-08-01T10:03:24;4.60;;;3.00;;
21761;SDS011;11203;50.870;20.682;2022-08-01T10:05:52;5.20;;;2.90;;
21761;SDS011;11203;50.870;20.682;2022-08-01T10:08:18;4.15;;;3.08;;
21761;SDS011;11203;50.870;20.682;2022-08-01T10:11:07;2.78;;;2.58;;
21761;SDS011;11203;50.870;20.682;2022-08-01T10:13:35;3.88;;;2.58;;
21761;SDS011;11203;50.870;20.682;2022-08-01T10:16:01;3.75;;;2.60;;
21761;SDS011;11203;50.870;20.682;2022-08-01T10:18:30;4.10;;;3.45;;
21761;SDS011;11203;50.870;20.682;2022-08-01T10:21:03;7.28;;;4.15;;
21761;SDS011;11203;50.870;20.682;2022-08-01T10:23:34;5.55;;;2.70;;
21761;SDS011;11203;50.870;20.682;2022-08-01T10:26:02;2.60;;;2.40;;
21761;SDS011;11203;50.870;20.682;2022-08-01T10:28:31;4.95;;;2.78;;
21761;SDS011;11203;50.870;20.682;2022-08-01T10:31:01;7.68;;;2.70;;
21761;SDS011;11203;50.870;20.682;2022-08-01T10:33:28;4.60;;;2.88;;
21761;SDS011;11203;50.870;20.682;2022-08-01T10:35:55;5.32;;;3.15;;
21761;SDS011;11203;50.870;20.682;2022-08-01T10:38:22;2.88;;;2.67;;
21761;SDS011;11203;50.870;20.682;2022-08-01T10:40:48;3.65;;;2.55;;
21761;SDS011;11203;50.870;20.682;2022-08-01T10:43:16;6.35;;;3.45;;
21761;SDS011;11203;50.870;20.682;2022-08-01T10:45:42;3.25;;;2.95;;
21761;SDS011;11203;50.870;20.682;2022-08-01T10:48:14;2.95;;;2.70;;
21761;SDS011;11203;50.870;20.682;2022-08-01T10:50:51;3.25;;;2.72;;
21761;SDS011;11203;50.870;20.682;2022-08-01T10:53:20;6.07;;;2.50;;
21761;SDS011;11203;50.870;20.682;2022-08-01T10:55:50;2.97;;;2.42;;
21761;SDS011;11203;50.870;20.682;2022-08-01T10:58:27;4.65;;;2.50;;
21761;SDS011;11203;50.870;20.682;2022-08-01T11:04:02;6.25;;;2.58;;
21761;SDS011;11203;50.870;20.682;2022-08-01T11:09:24;3.35;;;2.53;;
21761;SDS011;11203;50.870;20.682;2022-08-01T11:11:57;5.28;;;2.50;;
21761;SDS011;11203;50.870;20.682;2022-08-01T11:14:23;3.90;;;2.50;;
21761;SDS011;11203;50.870;20.682;2022-08-01T11:16:49;5.20;;;2.80;;
21761;SDS011;11203;50.870;20.682;2022-08-01T11:19:15;4.25;;;2.70;;
21761;SDS011;11203;50.870;20.682;2022-08-01T11:27:19;3.35;;;2.58;;
21761;SDS011;11203;50.870;20.682;2022-08-01T11:32:51;5.13;;;2.65;;
21761;SDS011;11203;50.870;20.682;2022-08-01T11:35:23;3.50;;;3.08;;
21761;SDS011;11203;50.870;20.682;2022-08-01T11:37:52;2.90;;;2.70;;
21761;SDS011;11203;50.870;20.682;2022-08-01T11:45:55;4.18;;;2.80;;
21761;SDS011;11203;50.870;20.682;2022-08-01T11:48:22;4.63;;;2.80;;
21761;SDS011;11203;50.870;20.682;2022-08-01T11:50:53;4.65;;;3.00;;
21761;SDS011;11203;50.870;20.682;2022-08-01T11:53:22;5.80;;;3.00;;
21761;SDS011;11203;50.870;20.682;2022-08-01T11:55:49;3.88;;;2.70;;
21761;SDS011;11203;50.870;20.682;2022-08-01T11:58:24;5.38;;;2.90;;
21761;SDS011;11203;50.870;20.682;2022-08-01T12:00:55;3.45;;;3.05;;
21761;SDS011;11203;50.870;20.682;2022-08-01T12:03:24;4.30;;;2.90;;
21761;SDS011;11203;50.870;20.682;2022-08-01T12:05:53;5.78;;;2.85;;
21761;SDS011;11203;50.870;20.682;2022-08-01T12:08:30;6.82;;;3.45;;
21761;SDS011;11203;50.870;20.682;2022-08-01T12:11:00;4.15;;;3.00;;
21761;SDS011;11203;50.870;20.682;2022-08-01T12:13:26;6.40;;;3.10;;
21761;SDS011;11203;50.870;20.682;2022-08-01T12:15:53;6.32;;;3.03;;
21761;SDS011;11203;50.870;20.682;2022-08-01T12:18:19;3.38;;;3.10;;
21761;SDS011;11203;50.870;20.682;2022-08-01T12:20:46;3.22;;;2.90;;
21761;SDS011;11203;50.870;20.682;2022-08-01T12:23:13;4.18;;;2.95;;
21761;SDS011;11203;50.870;20.682;2022-08-01T12:25:41;4.80;;;3.10;;
21761;SDS011;11203;50.870;20.682;2022-08-01T12:28:12;3.58;;;2.90;;
21761;SDS011;11203;50.870;20.682;2022-08-01T12:30:39;5.80;;;3.10;;
21761;SDS011;11203;50.870;20.682;2022-08-01T12:33:07;3.65;;;2.92;;
21761;SDS011;11203;50.870;20.682;2022-08-01T12:35:35;3.90;;;2.90;;
21761;SDS011;11203;50.870;20.682;2022-08-01T12:38:05;6.05;;;2.92;;
21761;SDS011;11203;50.870;20.682;2022-08-01T12:40:40;3.90;;;2.97;;
21761;SDS011;11203;50.870;20.682;2022-08-01T12:43:08;3.85;;;2.97;;
21761;SDS011;11203;50.870;20.682;2022-08-01T12:45:44;3.00;;;2.70;;
21761;SDS011;11203;50.870;20.682;2022-08-01T12:48:13;3.67;;;3.00;;
21761;SDS011;11203;50.870;20.682;2022-08-01T12:50:44;3.67;;;3.15;;
21761;SDS011;11203;50.870;20.682;2022-08-01T12:53:14;3.53;;;2.90;;
21761;SDS011;11203;50.870;20.682;2022-08-01T12:55:44;7.15;;;2.90;;
21761;SDS011;11203;50.870;20.682;2022-08-01T12:58:13;3.13;;;2.85;;
21761;SDS011;11203;50.870;20.682;2022-08-01T13:00:41;3.22;;;2.90;;
21761;SDS011;11203;50.870;20.682;2022-08-01T13:03:11;7.55;;;3.17;;
21761;SDS011;11203;50.870;20.682;2022-08-01T13:05:43;5.22;;;2.80;;
21761;SDS011;11203;50.870;20.682;2022-08-01T13:08:18;5.97;;;3.20;;
21761;SDS011;11203;50.870;20.682;2022-08-01T13:11:04;4.72;;;2.80;;
21761;SDS011;11203;50.870;20.682;2022-08-01T13:13:41;3.35;;;2.70;;
21761;SDS011;11203;50.870;20.682;2022-08-01T13:16:12;3.40;;;2.75;;
21761;SDS011;11203;50.870;20.682;2022-08-01T13:18:39;5.03;;;3.20;;
21761;SDS011;11203;50.870;20.682;2022-08-01T13:23:32;5.35;;;3.13;;
21761;SDS011;11203;50.870;20.682;2022-08-01T13:25:58;5.20;;;3.00;;
21761;SDS011;11203;50.870;20.682;2022-08-01T13:28:25;6.15;;;2.78;;
21761;SDS011;11203;50.870;20.682;2022-08-01T13:30:57;3.58;;;2.78;;
21761;SDS011;11203;50.870;20.682;2022-08-01T13:33:44;4.53;;;2.90;;
21761;SDS011;11203;50.870;20.682;2022-08-01T13:36:12;3.30;;;3.00;;
21761;SDS011;11203;50.870;20.682;2022-08-01T13:38:40;3.22;;;2.85;;
21761;SDS011;11203;50.870;20.682;2022-08-01T13:41:26;3.30;;;3.00;;
21761;SDS011;11203;50.870;20.682;2022-08-01T13:43:52;5.80;;;3.08;;
21761;SDS011;11203;50.870;20.682;2022-08-01T13:46:20;3.03;;;2.80;;
21761;SDS011;11203;50.870;20.682;2022-08-01T13:48:45;4.20;;;2.83;;
21761;SDS011;11203;50.870;20.682;2022-08-01T13:51:12;4.97;;;2.58;;
21761;SDS011;11203;50.870;20.682;2022-08-01T13:53:37;3.33;;;2.72;;
21761;SDS011;11203;50.870;20.682;2022-08-01T13:56:03;5.25;;;3.40;;
21761;SDS011;11203;50.870;20.682;2022-08-01T13:58:29;4.75;;;3.38;;
21761;SDS011;11203;50.870;20.682;2022-08-01T14:00:55;5.13;;;3.20;;
21761;SDS011;11203;50.870;20.682;2022-08-01T14:03:21;4.18;;;3.15;;
21761;SDS011;11203;50.870;20.682;2022-08-01T14:05:48;7.63;;;3.40;;
21761;SDS011;11203;50.870;20.682;2022-08-01T14:08:14;3.97;;;2.90;;
21761;SDS011;11203;50.870;20.682;2022-08-01T14:10:40;4.55;;;3.05;;
21761;SDS011;11203;50.870;20.682;2022-08-01T14:13:06;6.88;;;3.38;;
21761;SDS011;11203;50.870;20.682;2022-08-01T14:15:32;4.68;;;3.00;;
21761;SDS011;11203;50.870;20.682;2022-08-01T14:17:58;3.50;;;3.00;;
21761;SDS011;11203;50.870;20.682;2022-08-01T14:20:25;4.35;;;3.03;;
21761;SDS011;11203;50.870;20.682;2022-08-01T14:22:51;4.82;;;3.00;;
21761;SDS011;11203;50.870;20.682;2022-08-01T14:25:17;5.50;;;3.13;;
21761;SDS011;11203;50.870;20.682;2022-08-01T14:27:44;4.68;;;3.47;;
21761;SDS011;11203;50.870;20.682;2022-08-01T14:30:10;6.93;;;3.53;;
21761;SDS011;11203;50.870;20.682;2022-08-01T14:32:37;3.83;;;3.42;;
21761;SDS011;11203;50.870;20.682;2022-08-01T14:35:04;5.68;;;3.50;;
21761;SDS011;11203;50.870;20.682;2022-08-01T14:37:32;3.80;;;3.42;;
21761;SDS011;11203;50.870;20.682;2022-08-01T14:39:58;5.85;;;3.30;;
21761;SDS011;11203;50.870;20.682;2022-08-01T14:42:29;6.80;;;3.25;;
21761;SDS011;11203;50.870;20.682;2022-08-01T14:44:55;3.10;;;2.90;;
21761;SDS011;11203;50.870;20.682;2022-08-01T14:47:21;3.45;;;3.10;;
21761;SDS011;11203;50.870;20.682;2022-08-01T14:49:47;3.97;;;3.30;;
21761;SDS011;11203;50.870;20.682;2022-08-01T14:52:15;3.45;;;3.15;;
21761;SDS011;11203;50.870;20.682;2022-08-01T14:54:44;5.47;;;3.10;;
21761;SDS011;11203;50.870;20.682;2022-08-01T14:57:10;3.60;;;3.30;;
21761;SDS011;11203;50.870;20.682;2022-08-01T14:59:37;7.05;;;3.30;;